createdAt,value
2018-09-23T00:01:43.035Z,14.90
2018-09-23T00:04:10.842Z,14.90
2018-09-23T00:06:38.683Z,14.90
2018-09-23T00:09:07.463Z,14.90
2018-09-23T00:11:35.304Z,14.90
2018-09-23T00:14:03.165Z,14.80
2018-09-23T00:16:31.005Z,14.90
2018-09-23T00:18:58.843Z,15.00
2018-09-23T00:21:26.672Z,14.90
2018-09-23T00:23:54.529Z,14.80
2018-09-23T00:26:22.356Z,14.80
2018-09-23T00:28:50.185Z,14.70
2018-09-23T00:31:17.992Z,14.60
2018-09-23T00:33:45.777Z,14.60
2018-09-23T00:36:13.581Z,14.60
2018-09-23T00:38:41.405Z,14.50
2018-09-23T00:41:09.188Z,14.40
2018-09-23T00:43:37.059Z,14.40
2018-09-23T00:46:04.832Z,14.30
2018-09-23T00:48:32.662Z,14.20
2018-09-23T00:51:00.520Z,14.30
2018-09-23T00:53:28.313Z,14.20
2018-09-23T00:55:56.115Z,14.20
2018-09-23T00:58:24.596Z,14.20
2018-09-23T01:00:52.622Z,14.20
2018-09-23T01:03:20.952Z,14.30
2018-09-23T01:05:48.748Z,14.30
2018-09-23T01:08:16.544Z,14.20
2018-09-23T01:10:44.368Z,14.10
2018-09-23T01:13:12.185Z,14.10
2018-09-23T01:15:44.759Z,14.10
2018-09-23T01:18:12.642Z,14.00
2018-09-23T01:20:40.647Z,14.00
2018-09-23T01:23:08.461Z,14.00
2018-09-23T01:25:36.245Z,13.90
2018-09-23T01:28:04.113Z,13.80
2018-09-23T01:30:31.897Z,13.90
2018-09-23T01:32:59.680Z,14.10
2018-09-23T01:36:03.008Z,14.00
2018-09-23T01:38:30.773Z,14.10
2018-09-23T01:40:58.768Z,14.10
2018-09-23T01:43:26.584Z,14.00
2018-09-23T01:45:54.416Z,13.90
2018-09-23T01:48:22.188Z,14.00
2018-09-23T01:50:49.971Z,14.00
2018-09-23T01:53:17.753Z,14.00
2018-09-23T01:55:46.472Z,14.00
2018-09-23T01:58:14.268Z,14.00
2018-09-23T02:00:42.053Z,14.00
2018-09-23T02:03:09.872Z,13.90
2018-09-23T02:05:37.672Z,13.90
2018-09-23T02:08:05.881Z,13.80
2018-09-23T02:10:33.712Z,13.70
2018-09-23T02:13:01.480Z,13.70
2018-09-23T02:15:29.317Z,13.70
2018-09-23T02:17:57.114Z,13.80
2018-09-23T02:20:24.884Z,13.90
2018-09-23T02:22:52.808Z,14.00
2018-09-23T02:25:20.636Z,13.90
2018-09-23T02:27:48.518Z,13.90
2018-09-23T02:30:16.346Z,13.80
2018-09-23T02:32:44.195Z,13.80
2018-09-23T02:35:12.023Z,13.80
2018-09-23T02:37:39.793Z,13.70
2018-09-23T02:40:07.619Z,13.70
2018-09-23T02:42:35.485Z,13.70
2018-09-23T02:45:03.284Z,13.70
2018-09-23T02:47:31.080Z,13.70
2018-09-23T02:49:58.887Z,13.70
2018-09-23T02:52:26.683Z,13.80
2018-09-23T02:54:54.477Z,13.70
2018-09-23T02:57:22.244Z,13.80
2018-09-23T02:59:50.073Z,13.90
2018-09-23T03:02:17.981Z,13.90
2018-09-23T03:04:45.878Z,13.90
2018-09-23T03:07:13.667Z,13.80
2018-09-23T03:09:41.517Z,13.80
2018-09-23T03:12:09.328Z,13.80
2018-09-23T03:14:37.124Z,13.80
2018-09-23T03:17:04.976Z,13.80
2018-09-23T03:19:32.778Z,13.90
2018-09-23T03:22:00.623Z,13.90
2018-09-23T03:24:28.426Z,13.90
2018-09-23T03:26:56.209Z,13.90
2018-09-23T03:29:24.033Z,13.90
2018-09-23T03:31:51.852Z,13.90
2018-09-23T03:34:19.625Z,13.90
2018-09-23T03:36:47.815Z,13.80
2018-09-23T03:39:15.624Z,13.90
2018-09-23T03:41:43.422Z,13.90
2018-09-23T03:44:11.252Z,14.00
2018-09-23T03:46:39.053Z,13.90
2018-09-23T03:49:06.933Z,13.90
2018-09-23T03:51:34.710Z,13.90
2018-09-23T03:54:02.503Z,13.90
2018-09-23T03:56:30.332Z,13.90
2018-09-23T03:58:58.160Z,14.00
2018-09-23T04:01:25.975Z,14.00
2018-09-23T04:03:53.806Z,13.90
2018-09-23T04:06:21.700Z,13.80
2018-09-23T04:08:49.680Z,13.90
2018-09-23T04:11:17.520Z,13.90
2018-09-23T04:13:45.387Z,13.90
2018-09-23T04:16:13.563Z,13.80
2018-09-23T04:18:42.341Z,13.80
2018-09-23T04:21:10.302Z,13.80
2018-09-23T04:23:38.700Z,13.90
2018-09-23T04:26:07.852Z,13.90
2018-09-23T04:28:35.631Z,13.90
2018-09-23T04:31:03.452Z,14.00
2018-09-23T04:33:31.252Z,13.90
2018-09-23T04:35:59.866Z,13.90
2018-09-23T04:38:28.761Z,13.90
2018-09-23T04:40:56.631Z,13.90
2018-09-23T04:43:24.504Z,13.90
2018-09-23T04:45:54.046Z,14.00
2018-09-23T04:48:21.864Z,13.90
2018-09-23T04:50:51.231Z,13.80
2018-09-23T04:53:20.801Z,13.90
2018-09-23T04:55:48.571Z,13.90
2018-09-23T04:58:17.341Z,13.80
2018-09-23T05:00:45.172Z,13.80
2018-09-23T05:03:12.983Z,13.80
2018-09-23T05:05:41.051Z,13.90
2018-09-23T05:08:12.872Z,13.90
2018-09-23T05:10:42.768Z,13.90
2018-09-23T05:13:10.756Z,14.00
2018-09-23T05:15:38.726Z,13.90
2018-09-23T05:18:06.653Z,14.00
2018-09-23T05:20:36.098Z,14.00
2018-09-23T05:23:03.923Z,14.00
2018-09-23T05:25:31.794Z,14.00
2018-09-23T05:27:59.609Z,14.00
2018-09-23T05:30:27.421Z,14.00
2018-09-23T05:32:55.295Z,13.90
2018-09-23T05:35:23.153Z,13.90
2018-09-23T05:37:51.153Z,13.90
2018-09-23T05:40:18.964Z,14.00
2018-09-23T05:42:47.607Z,14.00
2018-09-23T05:45:16.450Z,14.00
2018-09-23T05:47:45.948Z,14.10
2018-09-23T05:50:14.719Z,14.10
2018-09-23T05:52:42.555Z,14.10
2018-09-23T05:55:11.184Z,14.10
2018-09-23T05:57:39.777Z,14.20
2018-09-23T06:00:11.082Z,14.20
2018-09-23T06:02:41.377Z,14.20
2018-09-23T06:05:10.043Z,14.30
2018-09-23T06:07:37.832Z,14.50
2018-09-23T06:10:10.216Z,14.60
2018-09-23T06:12:39.778Z,14.90
2018-09-23T06:15:11.175Z,15.10
2018-09-23T06:17:39.223Z,15.20
2018-09-23T06:20:10.094Z,15.30
2018-09-23T06:22:38.849Z,15.40
2018-09-23T06:25:10.052Z,15.30
2018-09-23T06:27:38.097Z,15.10
2018-09-23T06:30:08.585Z,15.10
2018-09-23T06:32:38.176Z,15.20
2018-09-23T06:35:07.532Z,15.10
2018-09-23T06:37:35.900Z,15.00
2018-09-23T06:40:05.397Z,15.00
2018-09-23T06:42:35.434Z,15.00
2018-09-23T06:45:06.362Z,15.10
2018-09-23T06:47:34.739Z,15.10
2018-09-23T06:50:05.751Z,15.20
2018-09-23T06:52:35.089Z,15.30
2018-09-23T06:55:04.341Z,15.30
2018-09-23T06:57:34.885Z,15.30
2018-09-23T07:00:02.958Z,15.40
2018-09-23T07:02:30.795Z,15.50
2018-09-23T07:04:58.705Z,15.50
2018-09-23T07:07:26.489Z,15.50
2018-09-23T07:09:54.313Z,15.60
2018-09-23T07:12:22.223Z,15.70
2018-09-23T07:14:50.024Z,15.60
2018-09-23T07:17:17.874Z,15.60
2018-09-23T07:19:46.192Z,15.60
2018-09-23T07:22:15.648Z,15.50
2018-09-23T07:24:44.085Z,15.50
2018-09-23T07:27:12.081Z,15.60
2018-09-23T07:29:39.958Z,15.50
2018-09-23T07:32:07.795Z,15.50
2018-09-23T07:34:39.914Z,15.50
2018-09-23T07:37:13.804Z,15.60
2018-09-23T07:39:44.831Z,15.60
2018-09-23T07:42:15.140Z,15.50
2018-09-23T07:44:45.436Z,15.50
2018-09-23T07:47:14.923Z,15.50
2018-09-23T07:49:44.229Z,15.40
2018-09-23T07:52:19.439Z,15.30
2018-09-23T07:54:50.121Z,15.30
2018-09-23T07:57:19.804Z,15.30
2018-09-23T07:59:47.742Z,15.30
2018-09-23T08:02:17.130Z,15.20
2018-09-23T08:04:46.879Z,15.20
2018-09-23T08:07:18.374Z,15.20
2018-09-23T08:09:46.806Z,15.40
2018-09-23T08:12:16.911Z,15.40
2018-09-23T08:14:46.692Z,15.50
2018-09-23T08:17:18.095Z,15.40
2018-09-23T08:19:48.800Z,15.40
2018-09-23T08:22:16.926Z,15.30
2018-09-23T08:24:48.723Z,15.40
2018-09-23T08:27:16.922Z,15.40
2018-09-23T08:29:46.410Z,15.50
2018-09-23T08:32:14.293Z,15.40
2018-09-23T08:34:42.138Z,15.60
2018-09-23T08:37:11.701Z,15.60
2018-09-23T08:39:41.945Z,15.70
2018-09-23T08:42:10.213Z,15.70
2018-09-23T08:44:38.071Z,15.60
2018-09-23T08:47:09.369Z,15.60
2018-09-23T08:49:37.460Z,15.60
2018-09-23T08:52:09.591Z,15.70
2018-09-23T08:54:39.505Z,15.70
2018-09-23T08:57:07.330Z,15.60
2018-09-23T08:59:35.231Z,15.40
2018-09-23T09:02:03.090Z,15.50
2018-09-23T09:04:30.924Z,15.60
2018-09-23T09:06:58.869Z,15.90
2018-09-23T09:09:26.835Z,16.00
2018-09-23T09:11:57.611Z,16.10
2018-09-23T09:14:25.550Z,16.10
2018-09-23T09:16:53.449Z,16.10
2018-09-23T09:19:21.269Z,16.30
2018-09-23T09:21:49.354Z,16.20
2018-09-23T09:24:17.166Z,16.20
2018-09-23T09:26:45.726Z,16.20
2018-09-23T09:29:13.898Z,16.30
2018-09-23T09:31:42.479Z,16.40
2018-09-23T09:34:10.924Z,16.40
2018-09-23T09:36:40.331Z,16.50
2018-09-23T09:39:09.672Z,16.50
2018-09-23T09:41:37.691Z,16.50
2018-09-23T09:44:09.926Z,16.60
2018-09-23T09:46:37.761Z,16.70
2018-09-23T09:49:05.695Z,16.80
2018-09-23T09:51:33.604Z,16.80
2018-09-23T09:54:02.189Z,16.80
2018-09-23T09:56:30.112Z,16.70
2018-09-23T09:58:58.812Z,16.80
2018-09-23T10:01:28.791Z,16.90
2018-09-23T10:03:59.346Z,16.80
2018-09-23T10:06:27.624Z,16.90
2018-09-23T10:08:55.432Z,16.90
2018-09-23T10:11:23.282Z,16.80
2018-09-23T10:13:51.847Z,16.80
2018-09-23T10:16:20.327Z,16.90
2018-09-23T10:18:48.392Z,16.70
2018-09-23T10:21:17.254Z,16.70
2018-09-23T10:23:47.233Z,16.60
2018-09-23T10:26:18.354Z,16.70
2018-09-23T10:28:48.650Z,16.60
2018-09-23T10:31:17.350Z,16.70
2018-09-23T10:33:46.989Z,16.80
2018-09-23T10:36:16.039Z,16.70
2018-09-23T10:38:44.083Z,16.70
2018-09-23T10:41:15.570Z,16.90
2018-09-23T10:43:43.463Z,16.90
2018-09-23T10:46:11.300Z,16.80
2018-09-23T10:48:39.151Z,16.90
2018-09-23T10:51:07.594Z,16.80
2018-09-23T10:53:35.548Z,16.80
2018-09-23T10:56:03.365Z,16.60
2018-09-23T10:58:31.204Z,16.70
2018-09-23T11:00:59.092Z,16.70
2018-09-23T11:03:26.904Z,16.80
2018-09-23T11:05:55.033Z,16.80
2018-09-23T11:08:24.251Z,16.80
2018-09-23T11:10:52.113Z,17.20
2018-09-23T11:13:20.015Z,17.20
2018-09-23T11:15:47.868Z,17.10
2018-09-23T11:18:15.692Z,17.10
2018-09-23T11:20:43.514Z,17.10
2018-09-23T11:23:11.346Z,17.10
2018-09-23T11:25:39.167Z,17.20
2018-09-23T11:28:07.015Z,17.20
2018-09-23T11:30:35.037Z,17.10
2018-09-23T11:33:02.915Z,17.20
2018-09-23T11:35:30.786Z,17.20
2018-09-23T11:37:58.612Z,17.40
2018-09-23T11:40:26.408Z,17.40
2018-09-23T11:42:54.292Z,17.50
2018-09-23T11:45:22.331Z,17.50
2018-09-23T11:47:50.176Z,17.50
2018-09-23T11:50:18.020Z,17.70
2018-09-23T11:52:45.866Z,17.70
2018-09-23T11:55:13.722Z,17.70
2018-09-23T11:57:41.846Z,17.80
2018-09-23T12:00:10.396Z,17.80
2018-09-23T12:02:38.304Z,17.80
2018-09-23T12:05:06.570Z,17.70
2018-09-23T12:07:34.473Z,17.70
2018-09-23T12:10:02.741Z,17.90
2018-09-23T12:12:31.083Z,17.90
2018-09-23T12:14:58.990Z,17.90
2018-09-23T12:17:27.438Z,17.80
2018-09-23T12:19:56.011Z,17.90
2018-09-23T12:22:23.892Z,18.00
2018-09-23T12:24:51.746Z,17.90
2018-09-23T12:27:20.240Z,18.00
2018-09-23T12:29:48.906Z,18.10
2018-09-23T12:32:16.784Z,18.30
2018-09-23T12:34:44.697Z,18.40
2018-09-23T12:37:13.510Z,18.50
2018-09-23T12:39:41.372Z,18.60
2018-09-23T12:42:10.008Z,18.70
2018-09-23T12:44:37.843Z,18.80
2018-09-23T12:47:05.659Z,18.90
2018-09-23T12:49:33.488Z,18.90
2018-09-23T12:52:01.330Z,18.80
2018-09-23T12:54:29.241Z,18.80
2018-09-23T12:56:57.058Z,18.80
2018-09-23T12:59:24.933Z,19.10
2018-09-23T13:01:53.775Z,19.10
2018-09-23T13:04:21.686Z,19.10
2018-09-23T13:06:49.568Z,19.20
2018-09-23T13:09:17.564Z,19.20
2018-09-23T13:11:45.716Z,19.40
2018-09-23T13:14:14.240Z,19.20
2018-09-23T13:16:42.646Z,19.30
2018-09-23T13:19:10.469Z,19.40
2018-09-23T13:21:38.288Z,19.70
2018-09-23T13:24:06.181Z,19.80
2018-09-23T13:26:34.059Z,20.00
2018-09-23T13:29:01.913Z,20.10
2018-09-23T13:31:29.708Z,20.20
2018-09-23T13:33:57.807Z,20.20
2018-09-23T13:36:25.666Z,19.90
2018-09-23T13:38:53.500Z,20.10
2018-09-23T13:41:21.920Z,20.10
2018-09-23T13:43:49.731Z,20.10
2018-09-23T13:46:18.082Z,20.10
2018-09-23T13:48:46.184Z,20.10
2018-09-23T13:51:14.058Z,20.10
2018-09-23T13:53:41.927Z,20.10
2018-09-23T13:56:09.819Z,20.10
2018-09-23T13:58:37.627Z,20.00
2018-09-23T14:01:05.781Z,20.00
2018-09-23T14:03:33.904Z,19.90
2018-09-23T14:06:01.748Z,20.10
2018-09-23T14:08:30.478Z,20.10
2018-09-23T14:11:00.152Z,20.20
2018-09-23T14:13:27.978Z,20.20
2018-09-23T14:15:55.880Z,20.20
2018-09-23T14:18:23.686Z,20.40
2018-09-23T14:20:51.573Z,20.50
2018-09-23T14:23:19.454Z,20.60
2018-09-23T14:25:47.321Z,20.60
2018-09-23T14:28:15.123Z,20.60
2018-09-23T14:30:43.112Z,20.70
2018-09-23T14:33:11.488Z,20.70
2018-09-23T14:35:39.364Z,20.80
2018-09-23T14:38:07.225Z,20.80
2018-09-23T14:40:35.092Z,20.80
2018-09-23T14:43:02.950Z,20.80
2018-09-23T14:45:30.809Z,20.80
2018-09-23T14:47:59.009Z,20.80
2018-09-23T14:50:26.856Z,20.80
2018-09-23T14:52:54.697Z,20.80
2018-09-23T14:55:23.517Z,20.80
2018-09-23T14:57:51.375Z,20.80
2018-09-23T15:00:19.242Z,20.90
2018-09-23T15:02:47.051Z,20.90
2018-09-23T15:05:14.894Z,20.90
2018-09-23T15:07:42.775Z,20.90
2018-09-23T15:10:10.763Z,20.90
2018-09-23T15:12:39.016Z,20.80
2018-09-23T15:15:07.449Z,20.70
2018-09-23T15:17:35.382Z,20.80
2018-09-23T15:20:03.289Z,20.70
2018-09-23T15:22:31.301Z,20.70
2018-09-23T15:24:59.172Z,21.00
2018-09-23T15:27:27.082Z,21.20
2018-09-23T15:29:54.937Z,21.20
2018-09-23T15:32:22.940Z,21.30
2018-09-23T15:34:50.767Z,21.40
2018-09-23T15:37:18.655Z,21.30
2018-09-23T15:39:46.495Z,21.40
2018-09-23T15:42:15.125Z,21.30
2018-09-23T15:44:43.232Z,21.40
2018-09-23T15:47:11.065Z,21.50
2018-09-23T15:49:39.041Z,21.60
2018-09-23T15:52:07.296Z,21.70
2018-09-23T15:54:35.743Z,21.80
2018-09-23T15:57:03.608Z,21.80
2018-09-23T15:59:32.076Z,22.00
2018-09-23T16:01:59.892Z,22.00
2018-09-23T16:04:27.804Z,22.00
2018-09-23T16:06:55.648Z,22.00
2018-09-23T16:09:23.477Z,22.00
2018-09-23T16:11:51.384Z,21.90
2018-09-23T16:14:19.277Z,21.90
2018-09-23T16:16:47.450Z,21.80
2018-09-23T16:19:15.884Z,21.90
2018-09-23T16:21:43.685Z,21.80
2018-09-23T16:24:11.523Z,21.80
2018-09-23T16:26:39.363Z,21.90
2018-09-23T16:29:07.262Z,21.80
2018-09-23T16:31:35.128Z,21.80
2018-09-23T16:34:03.042Z,21.70
2018-09-23T16:36:30.908Z,21.60
2018-09-23T16:38:58.798Z,21.70
2018-09-23T16:41:26.631Z,21.50
2018-09-23T16:43:54.803Z,21.50
2018-09-23T16:46:22.656Z,21.30
2018-09-23T16:48:50.502Z,21.30
2018-09-23T16:51:18.401Z,21.20
2018-09-23T16:53:46.265Z,21.00
2018-09-23T16:56:14.214Z,21.00
2018-09-23T16:58:42.102Z,20.80
2018-09-23T17:01:10.103Z,20.60
2018-09-23T17:03:37.954Z,20.60
2018-09-23T17:06:05.834Z,20.50
2018-09-23T17:08:33.996Z,20.40
2018-09-23T17:11:01.905Z,20.30
2018-09-23T17:13:29.745Z,20.20
2018-09-23T17:15:57.597Z,20.00
2018-09-23T17:18:26.120Z,19.90
2018-09-23T17:20:53.996Z,19.70
2018-09-23T17:23:22.700Z,19.70
2018-09-23T17:25:50.552Z,19.50
2018-09-23T17:28:19.483Z,19.40
2018-09-23T17:30:47.288Z,19.40
2018-09-23T17:33:15.156Z,19.20
2018-09-23T17:35:42.994Z,19.10
2018-09-23T17:38:12.163Z,19.10
2018-09-23T17:40:40.036Z,19.00
2018-09-23T17:43:07.988Z,19.00
2018-09-23T17:45:37.083Z,19.10
2018-09-23T17:48:04.944Z,19.00
2018-09-23T17:50:32.834Z,18.90
2018-09-23T17:53:00.769Z,18.70
2018-09-23T17:55:28.692Z,18.60
2018-09-23T17:57:57.651Z,18.50
2018-09-23T18:00:25.518Z,18.30
2018-09-23T18:02:53.375Z,18.10
2018-09-23T18:05:21.270Z,18.00
2018-09-23T18:07:49.177Z,18.00
2018-09-23T18:10:16.991Z,17.90
2018-09-23T18:12:45.580Z,17.90
2018-09-23T18:15:13.490Z,17.90
2018-09-23T18:17:41.626Z,17.90
2018-09-23T18:20:09.488Z,17.90
2018-09-23T18:22:37.337Z,17.80
2018-09-23T18:25:05.249Z,17.80
2018-09-23T18:27:33.395Z,17.80
2018-09-23T18:30:01.280Z,17.80
2018-09-23T18:32:29.158Z,17.80
2018-09-23T18:34:56.977Z,17.80
2018-09-23T18:37:24.937Z,17.90
2018-09-23T18:39:52.753Z,18.10
2018-09-23T18:42:20.700Z,18.40
2018-09-23T18:44:48.574Z,18.60
2018-09-23T18:47:16.664Z,18.90
2018-09-23T18:49:44.502Z,19.20
2018-09-23T18:52:12.312Z,19.40
2018-09-23T18:54:45.727Z,19.50
2018-09-23T18:57:13.581Z,19.60
2018-09-23T18:59:41.416Z,19.70
2018-09-23T19:02:09.841Z,19.80
2018-09-23T19:04:38.430Z,19.80
2018-09-23T19:07:06.249Z,19.90
2018-09-23T19:09:34.092Z,19.80
2018-09-23T19:12:02.880Z,19.70
2018-09-23T19:14:31.462Z,19.80
2018-09-23T19:16:59.299Z,19.80
2018-09-23T19:19:32.727Z,19.60
2018-09-23T19:22:00.601Z,19.60
2018-09-23T19:24:28.455Z,19.90
2018-09-23T19:26:56.375Z,20.30
2018-09-23T19:29:24.100Z,20.60
2018-09-23T19:31:51.919Z,20.20
2018-09-23T19:34:19.734Z,19.30
2018-09-23T19:36:47.541Z,18.60
2018-09-23T19:39:19.552Z,18.20
2018-09-23T19:41:47.444Z,18.10
2018-09-23T19:44:15.914Z,17.90
2018-09-23T19:46:47.207Z,17.80
2018-09-23T19:49:20.047Z,17.70
2018-09-23T19:51:48.405Z,17.80
2018-09-23T19:54:16.237Z,17.60
2018-09-23T19:56:44.994Z,17.40
2018-09-23T19:59:12.893Z,17.30
2018-09-23T20:01:40.846Z,17.20
2018-09-23T20:04:10.099Z,17.10
2018-09-23T20:06:42.032Z,17.10
2018-09-23T20:09:10.990Z,17.00
2018-09-23T20:11:40.010Z,16.90
2018-09-23T20:14:08.813Z,16.80
2018-09-23T20:16:42.947Z,16.80
2018-09-23T20:19:13.252Z,16.80
2018-09-23T20:21:42.112Z,16.80
2018-09-23T20:24:12.993Z,16.70
2018-09-23T20:26:46.718Z,16.70
2018-09-23T20:29:21.716Z,16.70
2018-09-23T20:31:57.322Z,16.60
2018-09-23T20:34:34.992Z,16.60
2018-09-23T20:37:11.412Z,16.50
2018-09-23T20:39:45.629Z,16.50
2018-09-23T20:42:18.512Z,16.50
2018-09-23T20:44:51.219Z,16.50
2018-09-23T20:47:23.273Z,16.50
2018-09-23T20:49:55.626Z,16.40
2018-09-23T20:52:26.134Z,16.40
2018-09-23T20:54:56.963Z,16.50
2018-09-23T20:57:28.812Z,16.50
2018-09-23T21:00:03.620Z,16.50
2018-09-23T21:02:35.143Z,16.60
2018-09-23T21:05:03.369Z,16.50
2018-09-23T21:07:35.888Z,16.50
2018-09-23T21:10:09.687Z,16.50
2018-09-23T21:12:39.754Z,16.50
2018-09-23T21:15:12.021Z,16.50
2018-09-23T21:17:46.336Z,16.50
2018-09-23T21:20:17.968Z,16.50
2018-09-23T21:22:50.870Z,16.50
2018-09-23T21:25:22.550Z,16.50
2018-09-23T21:27:53.055Z,16.50
2018-09-23T21:30:23.260Z,16.50
2018-09-23T21:32:54.393Z,16.50
2018-09-23T21:35:27.079Z,16.50
2018-09-23T21:37:58.331Z,16.50
2018-09-23T21:40:30.804Z,16.40
2018-09-23T21:42:59.779Z,16.50
2018-09-23T21:45:29.248Z,16.40
2018-09-23T21:48:00.076Z,16.50
2018-09-23T21:50:32.769Z,16.50
2018-09-23T21:53:09.523Z,16.50
2018-09-23T21:55:40.123Z,16.50
2018-09-23T21:58:12.685Z,16.50
2018-09-23T22:00:43.976Z,16.50
2018-09-23T22:03:14.017Z,16.40
2018-09-23T22:05:42.983Z,16.30
2018-09-23T22:08:12.083Z,16.20
2018-09-23T22:10:40.886Z,16.10
2018-09-23T22:13:12.786Z,16.00
2018-09-23T22:15:50.488Z,16.00
2018-09-23T22:18:18.769Z,15.90
2018-09-23T22:20:49.489Z,15.80
2018-09-23T22:23:19.289Z,15.70
2018-09-23T22:25:53.583Z,15.70
2018-09-23T22:28:26.456Z,15.70
2018-09-23T22:30:58.489Z,15.60
2018-09-23T22:33:29.485Z,15.60
2018-09-23T22:35:57.736Z,15.60
2018-09-23T22:38:27.879Z,15.60
2018-09-23T22:41:02.568Z,15.70
2018-09-23T22:43:34.216Z,15.70
2018-09-23T22:46:05.362Z,15.70
2018-09-23T22:48:42.676Z,15.70
2018-09-23T22:51:13.212Z,15.70
2018-09-23T22:53:43.227Z,15.70
2018-09-23T22:56:15.115Z,15.70
2018-09-23T22:58:43.342Z,15.70
2018-09-23T23:01:11.524Z,15.70
2018-09-23T23:03:40.349Z,15.70
2018-09-23T23:06:11.787Z,15.70
2018-09-23T23:08:41.195Z,15.60
2018-09-23T23:13:46.567Z,15.60
2018-09-23T23:16:17.621Z,15.50
2018-09-23T23:18:45.533Z,15.50
2018-09-23T23:21:18.001Z,15.30
2018-09-23T23:23:48.798Z,14.30
2018-09-23T23:26:16.684Z,13.60
2018-09-23T23:28:44.512Z,13.20
2018-09-23T23:31:13.309Z,12.90
2018-09-23T23:33:41.117Z,12.60
2018-09-23T23:36:09.005Z,12.50
2018-09-23T23:38:36.892Z,12.40
2018-09-23T23:41:04.964Z,12.30
2018-09-23T23:43:32.821Z,12.00
2018-09-23T23:46:00.643Z,11.70
2018-09-23T23:48:28.512Z,11.50
2018-09-23T23:50:56.328Z,11.30
2018-09-23T23:53:24.128Z,11.30
2018-09-23T23:55:51.979Z,11.20
2018-09-23T23:58:19.814Z,11.10
